sensor_id;sensor_type;location;lat;lon;timestamp;P1;durP1;ratioP1;P2;durP2;ratioP2
9228;SDS011;4649;42.644;23.284;2023-08-01T00:01:49;4.47;;;2.20;;
9228;SDS011;4649;42.644;23.284;2023-08-01T00:04:16;1.60;;;1.60;;
9228;SDS011;4649;42.644;23.284;2023-08-01T00:06:43;1.90;;;1.80;;
9228;SDS011;4649;42.644;23.284;2023-08-01T00:09:11;1.97;;;1.87;;
9228;SDS011;4649;42.644;23.284;2023-08-01T00:11:38;2.57;;;1.67;;
9228;SDS011;4649;42.644;23.284;2023-08-01T00:14:04;2.80;;;1.90;;
9228;SDS011;4649;42.644;23.284;2023-08-01T00:16:33;1.70;;;1.67;;
9228;SDS011;4649;42.644;23.284;2023-08-01T00:19:00;2.00;;;1.90;;
9228;SDS011;4649;42.644;23.284;2023-08-01T00:21:27;1.90;;;1.80;;
9228;SDS011;4649;42.644;23.284;2023-08-01T00:23:55;2.10;;;2.00;;
9228;SDS011;4649;42.644;23.284;2023-08-01T00:26:22;2.97;;;2.20;;
9228;SDS011;4649;42.644;23.284;2023-08-01T00:28:49;2.13;;;2.03;;
9228;SDS011;4649;42.644;23.284;2023-08-01T00:31:16;2.27;;;1.80;;
9228;SDS011;4649;42.644;23.284;2023-08-01T00:33:45;1.87;;;1.87;;
9228;SDS011;4649;42.644;23.284;2023-08-01T00:36:11;2.30;;;2.20;;
9228;SDS011;4649;42.644;23.284;2023-08-01T00:38:38;1.87;;;1.77;;
9228;SDS011;4649;42.644;23.284;2023-08-01T00:41:07;1.93;;;1.77;;
9228;SDS011;4649;42.644;23.284;2023-08-01T00:43:34;2.50;;;2.30;;
9228;SDS011;4649;42.644;23.284;2023-08-01T00:46:03;2.07;;;1.90;;
9228;SDS011;4649;42.644;23.284;2023-08-01T00:48:31;2.03;;;1.80;;
9228;SDS011;4649;42.644;23.284;2023-08-01T00:51:02;1.90;;;1.90;;
9228;SDS011;4649;42.644;23.284;2023-08-01T00:53:31;2.70;;;2.20;;
9228;SDS011;4649;42.644;23.284;2023-08-01T00:55:58;3.90;;;2.07;;
9228;SDS011;4649;42.644;23.284;2023-08-01T00:58:26;1.97;;;1.73;;
9228;SDS011;4649;42.644;23.284;2023-08-01T01:00:53;1.90;;;1.80;;
9228;SDS011;4649;42.644;23.284;2023-08-01T01:03:20;2.43;;;2.33;;
9228;SDS011;4649;42.644;23.284;2023-08-01T01:05:49;1.70;;;1.70;;
9228;SDS011;4649;42.644;23.284;2023-08-01T01:08:21;2.17;;;2.07;;
9228;SDS011;4649;42.644;23.284;2023-08-01T01:10:48;1.70;;;1.70;;
9228;SDS011;4649;42.644;23.284;2023-08-01T01:13:15;1.97;;;1.87;;
9228;SDS011;4649;42.644;23.284;2023-08-01T01:15:42;1.93;;;1.83;;
9228;SDS011;4649;42.644;23.284;2023-08-01T01:18:09;4.33;;;1.83;;
9228;SDS011;4649;42.644;23.284;2023-08-01T01:20:38;2.03;;;1.77;;
9228;SDS011;4649;42.644;23.284;2023-08-01T01:23:05;2.93;;;1.90;;
9228;SDS011;4649;42.644;23.284;2023-08-01T01:25:33;1.90;;;1.90;;
9228;SDS011;4649;42.644;23.284;2023-08-01T01:28:03;1.93;;;1.93;;
9228;SDS011;4649;42.644;23.284;2023-08-01T01:30:31;2.00;;;1.90;;
9228;SDS011;4649;42.644;23.284;2023-08-01T01:32:59;2.00;;;1.90;;
9228;SDS011;4649;42.644;23.284;2023-08-01T01:35:26;1.90;;;1.80;;
9228;SDS011;4649;42.644;23.284;2023-08-01T01:37:55;2.47;;;1.80;;
9228;SDS011;4649;42.644;23.284;2023-08-01T01:40:23;2.07;;;1.97;;
9228;SDS011;4649;42.644;23.284;2023-08-01T01:42:50;2.07;;;1.97;;
9228;SDS011;4649;42.644;23.284;2023-08-01T01:45:17;2.07;;;1.70;;
9228;SDS011;4649;42.644;23.284;2023-08-01T01:47:44;2.07;;;1.97;;
9228;SDS011;4649;42.644;23.284;2023-08-01T01:50:11;3.37;;;1.67;;
9228;SDS011;4649;42.644;23.284;2023-08-01T01:52:38;2.03;;;1.93;;
9228;SDS011;4649;42.644;23.284;2023-08-01T01:55:08;3.90;;;1.93;;
9228;SDS011;4649;42.644;23.284;2023-08-01T01:57:35;4.57;;;2.00;;
9228;SDS011;4649;42.644;23.284;2023-08-01T02:00:02;2.10;;;2.00;;
9228;SDS011;4649;42.644;23.284;2023-08-01T02:02:29;4.40;;;1.73;;
9228;SDS011;4649;42.644;23.284;2023-08-01T02:04:57;1.50;;;1.50;;
9228;SDS011;4649;42.644;23.284;2023-08-01T02:07:23;1.77;;;1.70;;
9228;SDS011;4649;42.644;23.284;2023-08-01T02:09:50;3.43;;;2.20;;
9228;SDS011;4649;42.644;23.284;2023-08-01T02:12:19;2.07;;;1.87;;
9228;SDS011;4649;42.644;23.284;2023-08-01T02:14:45;3.43;;;2.10;;
9228;SDS011;4649;42.644;23.284;2023-08-01T02:17:15;1.80;;;1.77;;
9228;SDS011;4649;42.644;23.284;2023-08-01T02:19:42;1.77;;;1.67;;
9228;SDS011;4649;42.644;23.284;2023-08-01T02:22:09;1.90;;;1.80;;
9228;SDS011;4649;42.644;23.284;2023-08-01T02:24:36;2.30;;;2.20;;
9228;SDS011;4649;42.644;23.284;2023-08-01T02:27:03;1.77;;;1.67;;
9228;SDS011;4649;42.644;23.284;2023-08-01T02:29:32;1.87;;;1.67;;
9228;SDS011;4649;42.644;23.284;2023-08-01T02:31:59;2.03;;;1.90;;
9228;SDS011;4649;42.644;23.284;2023-08-01T02:34:25;2.13;;;2.03;;
9228;SDS011;4649;42.644;23.284;2023-08-01T02:36:52;1.77;;;1.67;;
9228;SDS011;4649;42.644;23.284;2023-08-01T02:39:19;5.30;;;1.80;;
9228;SDS011;4649;42.644;23.284;2023-08-01T02:41:46;2.30;;;2.10;;
9228;SDS011;4649;42.644;23.284;2023-08-01T02:44:13;1.50;;;1.40;;
9228;SDS011;4649;42.644;23.284;2023-08-01T02:46:41;1.87;;;1.77;;
9228;SDS011;4649;42.644;23.284;2023-08-01T02:49:08;2.00;;;1.90;;
9228;SDS011;4649;42.644;23.284;2023-08-01T02:51:35;1.73;;;1.63;;
9228;SDS011;4649;42.644;23.284;2023-08-01T02:54:03;2.20;;;2.10;;
9228;SDS011;4649;42.644;23.284;2023-08-01T02:56:29;1.87;;;1.77;;
9228;SDS011;4649;42.644;23.284;2023-08-01T02:58:56;1.97;;;1.87;;
9228;SDS011;4649;42.644;23.284;2023-08-01T03:01:23;2.03;;;1.93;;
9228;SDS011;4649;42.644;23.284;2023-08-01T03:03:51;3.33;;;1.80;;
9228;SDS011;4649;42.644;23.284;2023-08-01T03:06:18;1.80;;;1.70;;
9228;SDS011;4649;42.644;23.284;2023-08-01T03:08:45;2.50;;;2.40;;
9228;SDS011;4649;42.644;23.284;2023-08-01T03:11:12;2.40;;;2.20;;
9228;SDS011;4649;42.644;23.284;2023-08-01T03:13:39;2.30;;;2.20;;
9228;SDS011;4649;42.644;23.284;2023-08-01T03:16:06;5.33;;;2.90;;
9228;SDS011;4649;42.644;23.284;2023-08-01T03:18:35;2.50;;;2.40;;
9228;SDS011;4649;42.644;23.284;2023-08-01T03:21:03;7.13;;;2.33;;
9228;SDS011;4649;42.644;23.284;2023-08-01T03:23:30;3.20;;;2.73;;
9228;SDS011;4649;42.644;23.284;2023-08-01T03:25:57;3.63;;;2.20;;
9228;SDS011;4649;42.644;23.284;2023-08-01T03:28:25;2.93;;;2.20;;
9228;SDS011;4649;42.644;23.284;2023-08-01T03:30:54;3.27;;;3.17;;
9228;SDS011;4649;42.644;23.284;2023-08-01T03:33:21;3.60;;;3.30;;
9228;SDS011;4649;42.644;23.284;2023-08-01T03:35:48;3.20;;;3.00;;
9228;SDS011;4649;42.644;23.284;2023-08-01T03:38:17;2.30;;;2.20;;
9228;SDS011;4649;42.644;23.284;2023-08-01T03:40:44;3.77;;;2.60;;
9228;SDS011;4649;42.644;23.284;2023-08-01T03:43:11;2.80;;;2.60;;
9228;SDS011;4649;42.644;23.284;2023-08-01T03:45:39;8.43;;;7.63;;
9228;SDS011;4649;42.644;23.284;2023-08-01T03:48:06;7.90;;;4.50;;
9228;SDS011;4649;42.644;23.284;2023-08-01T03:50:33;6.07;;;2.50;;
9228;SDS011;4649;42.644;23.284;2023-08-01T03:53:01;5.50;;;3.07;;
9228;SDS011;4649;42.644;23.284;2023-08-01T03:55:29;12.13;;;3.30;;
9228;SDS011;4649;42.644;23.284;2023-08-01T03:57:56;7.43;;;2.60;;
9228;SDS011;4649;42.644;23.284;2023-08-01T04:00:23;4.43;;;1.97;;
9228;SDS011;4649;42.644;23.284;2023-08-01T04:02:50;3.33;;;2.53;;
9228;SDS011;4649;42.644;23.284;2023-08-01T04:05:17;2.20;;;2.10;;
9228;SDS011;4649;42.644;23.284;2023-08-01T04:07:44;2.30;;;2.20;;
9228;SDS011;4649;42.644;23.284;2023-08-01T04:10:10;2.37;;;2.23;;
9228;SDS011;4649;42.644;23.284;2023-08-01T04:12:39;2.00;;;1.87;;
9228;SDS011;4649;42.644;23.284;2023-08-01T04:15:07;2.40;;;2.30;;
9228;SDS011;4649;42.644;23.284;2023-08-01T04:17:34;2.43;;;2.23;;
9228;SDS011;4649;42.644;23.284;2023-08-01T04:20:01;1.90;;;1.80;;
9228;SDS011;4649;42.644;23.284;2023-08-01T04:22:28;2.00;;;1.90;;
9228;SDS011;4649;42.644;23.284;2023-08-01T04:24:55;2.17;;;2.03;;
9228;SDS011;4649;42.644;23.284;2023-08-01T04:27:22;2.40;;;2.17;;
9228;SDS011;4649;42.644;23.284;2023-08-01T04:29:51;3.73;;;2.10;;
9228;SDS011;4649;42.644;23.284;2023-08-01T04:32:19;3.00;;;2.73;;
9228;SDS011;4649;42.644;23.284;2023-08-01T04:34:46;2.60;;;2.17;;
9228;SDS011;4649;42.644;23.284;2023-08-01T04:37:13;2.13;;;2.03;;
9228;SDS011;4649;42.644;23.284;2023-08-01T04:39:41;2.00;;;1.90;;
9228;SDS011;4649;42.644;23.284;2023-08-01T04:42:08;2.20;;;2.10;;
9228;SDS011;4649;42.644;23.284;2023-08-01T04:44:35;5.77;;;3.20;;
9228;SDS011;4649;42.644;23.284;2023-08-01T04:47:03;5.97;;;2.70;;
9228;SDS011;4649;42.644;23.284;2023-08-01T04:49:31;3.83;;;2.53;;
9228;SDS011;4649;42.644;23.284;2023-08-01T04:51:57;4.23;;;2.70;;
9228;SDS011;4649;42.644;23.284;2023-08-01T04:54:25;3.93;;;2.93;;
9228;SDS011;4649;42.644;23.284;2023-08-01T04:56:52;4.53;;;3.60;;
9228;SDS011;4649;42.644;23.284;2023-08-01T04:59:19;5.38;;;2.90;;
9228;SDS011;4649;42.644;23.284;2023-08-01T05:01:45;5.25;;;3.20;;
9228;SDS011;4649;42.644;23.284;2023-08-01T05:04:14;7.60;;;2.83;;
9228;SDS011;4649;42.644;23.284;2023-08-01T05:06:40;2.88;;;2.60;;
9228;SDS011;4649;42.644;23.284;2023-08-01T05:09:07;3.42;;;3.17;;
9228;SDS011;4649;42.644;23.284;2023-08-01T05:11:35;5.15;;;2.70;;
9228;SDS011;4649;42.644;23.284;2023-08-01T05:14:02;4.13;;;2.92;;
9228;SDS011;4649;42.644;23.284;2023-08-01T05:16:29;10.70;;;2.85;;
9228;SDS011;4649;42.644;23.284;2023-08-01T05:18:57;5.38;;;3.15;;
9228;SDS011;4649;42.644;23.284;2023-08-01T05:21:26;4.35;;;2.78;;
9228;SDS011;4649;42.644;23.284;2023-08-01T05:23:52;2.92;;;2.42;;
9228;SDS011;4649;42.644;23.284;2023-08-01T05:26:19;4.10;;;2.80;;
9228;SDS011;4649;42.644;23.284;2023-08-01T05:28:46;4.72;;;3.22;;
9228;SDS011;4649;42.644;23.284;2023-08-01T05:31:13;3.05;;;2.67;;
9228;SDS011;4649;42.644;23.284;2023-08-01T05:33:39;5.15;;;2.33;;
9228;SDS011;4649;42.644;23.284;2023-08-01T05:36:06;4.40;;;2.20;;
9228;SDS011;4649;42.644;23.284;2023-08-01T05:38:34;3.00;;;2.80;;
9228;SDS011;4649;42.644;23.284;2023-08-01T05:41:01;2.85;;;2.65;;
9228;SDS011;4649;42.644;23.284;2023-08-01T05:43:28;6.78;;;2.58;;
9228;SDS011;4649;42.644;23.284;2023-08-01T05:46:04;3.47;;;3.28;;
9228;SDS011;4649;42.644;23.284;2023-08-01T05:48:30;2.45;;;2.30;;
9228;SDS011;4649;42.644;23.284;2023-08-01T05:50:59;3.33;;;2.53;;
9228;SDS011;4649;42.644;23.284;2023-08-01T05:53:26;6.78;;;2.60;;
9228;SDS011;4649;42.644;23.284;2023-08-01T05:55:55;15.70;;;3.67;;
9228;SDS011;4649;42.644;23.284;2023-08-01T05:58:22;6.83;;;2.90;;
9228;SDS011;4649;42.644;23.284;2023-08-01T06:00:49;4.30;;;2.60;;
9228;SDS011;4649;42.644;23.284;2023-08-01T06:03:16;9.40;;;3.77;;
9228;SDS011;4649;42.644;23.284;2023-08-01T06:05:43;13.13;;;4.17;;
9228;SDS011;4649;42.644;23.284;2023-08-01T06:08:10;31.37;;;5.70;;
9228;SDS011;4649;42.644;23.284;2023-08-01T06:10:38;6.40;;;3.37;;
9228;SDS011;4649;42.644;23.284;2023-08-01T06:13:07;4.07;;;3.00;;
9228;SDS011;4649;42.644;23.284;2023-08-01T06:15:34;5.93;;;2.57;;
9228;SDS011;4649;42.644;23.284;2023-08-01T06:18:01;3.57;;;2.83;;
9228;SDS011;4649;42.644;23.284;2023-08-01T06:20:28;3.80;;;2.90;;
9228;SDS011;4649;42.644;23.284;2023-08-01T06:22:55;5.53;;;2.37;;
9228;SDS011;4649;42.644;23.284;2023-08-01T06:25:22;2.93;;;2.73;;
9228;SDS011;4649;42.644;23.284;2023-08-01T06:27:49;4.33;;;2.40;;
9228;SDS011;4649;42.644;23.284;2023-08-01T06:30:17;3.10;;;2.00;;
9228;SDS011;4649;42.644;23.284;2023-08-01T06:32:46;2.60;;;2.40;;
9228;SDS011;4649;42.644;23.284;2023-08-01T06:35:13;3.17;;;2.07;;
9228;SDS011;4649;42.644;23.284;2023-08-01T06:37:40;2.10;;;1.97;;
9228;SDS011;4649;42.644;23.284;2023-08-01T06:40:07;2.37;;;2.27;;
9228;SDS011;4649;42.644;23.284;2023-08-01T06:42:35;2.60;;;2.00;;
9228;SDS011;4649;42.644;23.284;2023-08-01T06:45:02;2.40;;;2.20;;
9228;SDS011;4649;42.644;23.284;2023-08-01T06:47:30;2.97;;;2.07;;
9228;SDS011;4649;42.644;23.284;2023-08-01T06:49:57;7.23;;;3.00;;
9228;SDS011;4649;42.644;23.284;2023-08-01T06:52:23;4.33;;;2.10;;
9228;SDS011;4649;42.644;23.284;2023-08-01T06:54:50;6.10;;;1.97;;
9228;SDS011;4649;42.644;23.284;2023-08-01T06:57:17;2.33;;;2.13;;
9228;SDS011;4649;42.644;23.284;2023-08-01T06:59:44;3.50;;;2.40;;
9228;SDS011;4649;42.644;23.284;2023-08-01T07:02:11;3.33;;;2.57;;
9228;SDS011;4649;42.644;23.284;2023-08-01T07:04:39;4.03;;;2.30;;
9228;SDS011;4649;42.644;23.284;2023-08-01T07:07:06;4.60;;;2.20;;
9228;SDS011;4649;42.644;23.284;2023-08-01T07:09:33;4.13;;;2.30;;
9228;SDS011;4649;42.644;23.284;2023-08-01T07:12:00;2.40;;;2.00;;
9228;SDS011;4649;42.644;23.284;2023-08-01T07:14:27;2.77;;;1.83;;
9228;SDS011;4649;42.644;23.284;2023-08-01T07:16:54;2.30;;;2.10;;
9228;SDS011;4649;42.644;23.284;2023-08-01T07:19:21;5.60;;;2.40;;
9228;SDS011;4649;42.644;23.284;2023-08-01T07:21:49;2.10;;;1.80;;
9228;SDS011;4649;42.644;23.284;2023-08-01T07:24:16;2.27;;;2.07;;
9228;SDS011;4649;42.644;23.284;2023-08-01T07:26:44;3.10;;;2.67;;
9228;SDS011;4649;42.644;23.284;2023-08-01T07:29:10;1.93;;;1.73;;
9228;SDS011;4649;42.644;23.284;2023-08-01T07:31:41;7.40;;;1.70;;
9228;SDS011;4649;42.644;23.284;2023-08-01T07:34:08;6.20;;;2.70;;
9228;SDS011;4649;42.644;23.284;2023-08-01T07:36:35;8.57;;;2.37;;
9228;SDS011;4649;42.644;23.284;2023-08-01T07:39:03;2.50;;;2.30;;
9228;SDS011;4649;42.644;23.284;2023-08-01T07:41:30;8.87;;;2.17;;
9228;SDS011;4649;42.644;23.284;2023-08-01T07:43:59;4.33;;;2.47;;
9228;SDS011;4649;42.644;23.284;2023-08-01T07:46:27;5.63;;;2.83;;
9228;SDS011;4649;42.644;23.284;2023-08-01T07:48:54;2.80;;;2.60;;
9228;SDS011;4649;42.644;23.284;2023-08-01T07:51:21;5.23;;;2.80;;
9228;SDS011;4649;42.644;23.284;2023-08-01T07:53:48;19.63;;;3.87;;
9228;SDS011;4649;42.644;23.284;2023-08-01T07:56:19;6.03;;;3.23;;
9228;SDS011;4649;42.644;23.284;2023-08-01T07:58:46;4.07;;;2.27;;
9228;SDS011;4649;42.644;23.284;2023-08-01T08:01:12;2.30;;;2.17;;
9228;SDS011;4649;42.644;23.284;2023-08-01T08:03:39;4.20;;;3.60;;
9228;SDS011;4649;42.644;23.284;2023-08-01T08:06:06;13.63;;;3.70;;
9228;SDS011;4649;42.644;23.284;2023-08-01T08:08:33;16.45;;;3.20;;
9228;SDS011;4649;42.644;23.284;2023-08-01T08:11:01;8.15;;;2.63;;
9228;SDS011;4649;42.644;23.284;2023-08-01T08:13:30;37.33;;;4.80;;
9228;SDS011;4649;42.644;23.284;2023-08-01T08:15:57;9.05;;;3.47;;
9228;SDS011;4649;42.644;23.284;2023-08-01T08:18:24;27.92;;;4.85;;
9228;SDS011;4649;42.644;23.284;2023-08-01T08:20:51;2.85;;;2.53;;
9228;SDS011;4649;42.644;23.284;2023-08-01T08:23:18;2.53;;;2.05;;
9228;SDS011;4649;42.644;23.284;2023-08-01T08:25:45;2.58;;;2.38;;
9228;SDS011;4649;42.644;23.284;2023-08-01T08:28:13;4.15;;;2.15;;
9228;SDS011;4649;42.644;23.284;2023-08-01T08:30:41;2.63;;;2.42;;
9228;SDS011;4649;42.644;23.284;2023-08-01T08:33:08;8.70;;;1.88;;
9228;SDS011;4649;42.644;23.284;2023-08-01T08:35:35;2.50;;;2.33;;
9228;SDS011;4649;42.644;23.284;2023-08-01T08:38:03;3.40;;;3.10;;
9228;SDS011;4649;42.644;23.284;2023-08-01T08:40:31;2.63;;;2.35;;
9228;SDS011;4649;42.644;23.284;2023-08-01T08:42:59;35.17;;;4.50;;
9228;SDS011;4649;42.644;23.284;2023-08-01T08:45:29;8.32;;;2.00;;
9228;SDS011;4649;42.644;23.284;2023-08-01T08:48:02;2.30;;;2.20;;
9228;SDS011;4649;42.644;23.284;2023-08-01T08:50:34;2.95;;;2.75;;
9228;SDS011;4649;42.644;23.284;2023-08-01T08:53:02;5.05;;;3.28;;
9228;SDS011;4649;42.644;23.284;2023-08-01T08:55:29;4.97;;;2.65;;
9228;SDS011;4649;42.644;23.284;2023-08-01T08:57:56;7.93;;;2.42;;
9228;SDS011;4649;42.644;23.284;2023-08-01T09:00:25;5.45;;;2.10;;
9228;SDS011;4649;42.644;23.284;2023-08-01T09:02:54;2.75;;;2.33;;
9228;SDS011;4649;42.644;23.284;2023-08-01T09:05:22;2.08;;;1.98;;
9228;SDS011;4649;42.644;23.284;2023-08-01T09:07:54;3.80;;;2.60;;
9228;SDS011;4649;42.644;23.284;2023-08-01T09:10:23;2.58;;;2.30;;
9228;SDS011;4649;42.644;23.284;2023-08-01T09:12:50;3.10;;;2.90;;
9228;SDS011;4649;42.644;23.284;2023-08-01T09:15:17;2.33;;;2.17;;
9228;SDS011;4649;42.644;23.284;2023-08-01T09:17:48;3.60;;;2.60;;
9228;SDS011;4649;42.644;23.284;2023-08-01T09:20:16;3.78;;;2.42;;
9228;SDS011;4649;42.644;23.284;2023-08-01T09:22:45;2.97;;;2.27;;
9228;SDS011;4649;42.644;23.284;2023-08-01T09:25:12;4.60;;;2.53;;
9228;SDS011;4649;42.644;23.284;2023-08-01T09:27:40;2.47;;;2.38;;
9228;SDS011;4649;42.644;23.284;2023-08-01T09:30:07;2.47;;;2.28;;
9228;SDS011;4649;42.644;23.284;2023-08-01T09:32:36;3.10;;;2.90;;
9228;SDS011;4649;42.644;23.284;2023-08-01T09:35:03;3.30;;;2.10;;
9228;SDS011;4649;42.644;23.284;2023-08-01T09:37:38;3.10;;;2.80;;
9228;SDS011;4649;42.644;23.284;2023-08-01T09:42:55;2.55;;;2.45;;
9228;SDS011;4649;42.644;23.284;2023-08-01T09:45:29;2.30;;;2.20;;
9228;SDS011;4649;42.644;23.284;2023-08-01T09:47:58;2.33;;;2.00;;
9228;SDS011;4649;42.644;23.284;2023-08-01T09:50:25;2.67;;;2.47;;
9228;SDS011;4649;42.644;23.284;2023-08-01T09:52:52;2.83;;;2.40;;
9228;SDS011;4649;42.644;23.284;2023-08-01T09:55:20;4.68;;;2.00;;
9228;SDS011;4649;42.644;23.284;2023-08-01T09:57:58;3.53;;;2.30;;
9228;SDS011;4649;42.644;23.284;2023-08-01T10:00:26;4.57;;;2.50;;
9228;SDS011;4649;42.644;23.284;2023-08-01T10:02:55;2.85;;;2.65;;
9228;SDS011;4649;42.644;23.284;2023-08-01T10:05:25;3.25;;;2.97;;
9228;SDS011;4649;42.644;23.284;2023-08-01T10:07:55;2.70;;;2.50;;
9228;SDS011;4649;42.644;23.284;2023-08-01T10:10:27;3.22;;;2.47;;
9228;SDS011;4649;42.644;23.284;2023-08-01T10:12:54;10.07;;;2.90;;
9228;SDS011;4649;42.644;23.284;2023-08-01T10:15:23;2.95;;;2.58;;
9228;SDS011;4649;42.644;23.284;2023-08-01T10:17:50;3.97;;;2.80;;
9228;SDS011;4649;42.644;23.284;2023-08-01T10:20:17;3.42;;;2.30;;
9228;SDS011;4649;42.644;23.284;2023-08-01T10:22:46;8.68;;;2.83;;
9228;SDS011;4649;42.644;23.284;2023-08-01T10:25:14;3.22;;;2.97;;
9228;SDS011;4649;42.644;23.284;2023-08-01T10:27:43;3.42;;;3.13;;
9228;SDS011;4649;42.644;23.284;2023-08-01T10:30:10;8.98;;;2.92;;
9228;SDS011;4649;42.644;23.284;2023-08-01T10:32:38;3.63;;;2.80;;
9228;SDS011;4649;42.644;23.284;2023-08-01T10:35:06;2.75;;;2.53;;
9228;SDS011;4649;42.644;23.284;2023-08-01T10:37:40;4.40;;;2.60;;
9228;SDS011;4649;42.644;23.284;2023-08-01T10:40:07;5.78;;;2.75;;
9228;SDS011;4649;42.644;23.284;2023-08-01T10:42:38;5.90;;;2.67;;
9228;SDS011;4649;42.644;23.284;2023-08-01T10:45:08;2.70;;;2.30;;
9228;SDS011;4649;42.644;23.284;2023-08-01T10:47:47;5.57;;;2.90;;
9228;SDS011;4649;42.644;23.284;2023-08-01T10:50:14;2.78;;;2.58;;
9228;SDS011;4649;42.644;23.284;2023-08-01T10:52:42;9.75;;;2.58;;
9228;SDS011;4649;42.644;23.284;2023-08-01T10:55:09;2.25;;;2.15;;
9228;SDS011;4649;42.644;23.284;2023-08-01T10:57:38;5.43;;;3.08;;
9228;SDS011;4649;42.644;23.284;2023-08-01T11:00:06;3.53;;;2.28;;
9228;SDS011;4649;42.644;23.284;2023-08-01T11:02:35;6.72;;;2.70;;
9228;SDS011;4649;42.644;23.284;2023-08-01T11:05:03;5.80;;;2.92;;
9228;SDS011;4649;42.644;23.284;2023-08-01T11:07:31;2.35;;;2.15;;
9228;SDS011;4649;42.644;23.284;2023-08-01T11:10:02;2.97;;;2.60;;
9228;SDS011;4649;42.644;23.284;2023-08-01T11:12:34;3.13;;;2.70;;
9228;SDS011;4649;42.644;23.284;2023-08-01T11:15:03;5.50;;;2.45;;
9228;SDS011;4649;42.644;23.284;2023-08-01T11:17:32;2.88;;;2.67;;
9228;SDS011;4649;42.644;23.284;2023-08-01T11:20:03;5.43;;;2.80;;
9228;SDS011;4649;42.644;23.284;2023-08-01T11:22:31;4.25;;;3.08;;
9228;SDS011;4649;42.644;23.284;2023-08-01T11:24:58;5.97;;;3.05;;
9228;SDS011;4649;42.644;23.284;2023-08-01T11:27:24;10.95;;;2.97;;
9228;SDS011;4649;42.644;23.284;2023-08-01T11:29:52;3.63;;;2.33;;
9228;SDS011;4649;42.644;23.284;2023-08-01T11:32:31;2.90;;;2.65;;
9228;SDS011;4649;42.644;23.284;2023-08-01T11:35:00;5.18;;;2.92;;
9228;SDS011;4649;42.644;23.284;2023-08-01T11:37:28;2.47;;;2.38;;
9228;SDS011;4649;42.644;23.284;2023-08-01T11:39:55;2.40;;;2.30;;
9228;SDS011;4649;42.644;23.284;2023-08-01T11:42:25;5.57;;;2.30;;
9228;SDS011;4649;42.644;23.284;2023-08-01T11:45:07;5.60;;;2.22;;
9228;SDS011;4649;42.644;23.284;2023-08-01T11:47:36;2.60;;;2.40;;
9228;SDS011;4649;42.644;23.284;2023-08-01T11:50:03;4.30;;;1.80;;
9228;SDS011;4649;42.644;23.284;2023-08-01T11:52:32;2.20;;;2.10;;
9228;SDS011;4649;42.644;23.284;2023-08-01T11:54:59;2.47;;;2.38;;
9228;SDS011;4649;42.644;23.284;2023-08-01T11:57:26;2.08;;;1.98;;
9228;SDS011;4649;42.644;23.284;2023-08-01T11:59:54;2.33;;;2.13;;
9228;SDS011;4649;42.644;23.284;2023-08-01T12:02:22;2.25;;;2.15;;
9228;SDS011;4649;42.644;23.284;2023-08-01T12:04:53;2.58;;;2.47;;
9228;SDS011;4649;42.644;23.284;2023-08-01T12:07:20;2.38;;;1.90;;
9228;SDS011;4649;42.644;23.284;2023-08-01T12:09:54;2.40;;;2.30;;
9228;SDS011;4649;42.644;23.284;2023-08-01T12:12:22;7.93;;;2.70;;
9228;SDS011;4649;42.644;23.284;2023-08-01T12:14:49;7.93;;;2.50;;
9228;SDS011;4649;42.644;23.284;2023-08-01T12:17:17;2.80;;;2.40;;
9228;SDS011;4649;42.644;23.284;2023-08-01T12:19:43;2.35;;;2.22;;
9228;SDS011;4649;42.644;23.284;2023-08-01T12:22:15;5.70;;;2.58;;
9228;SDS011;4649;42.644;23.284;2023-08-01T12:24:42;2.00;;;1.90;;
9228;SDS011;4649;42.644;23.284;2023-08-01T12:27:09;3.78;;;2.22;;
9228;SDS011;4649;42.644;23.284;2023-08-01T12:29:36;6.18;;;2.22;;
9228;SDS011;4649;42.644;23.284;2023-08-01T12:32:04;1.80;;;1.70;;
9228;SDS011;4649;42.644;23.284;2023-08-01T12:34:31;2.63;;;1.98;;
9228;SDS011;4649;42.644;23.284;2023-08-01T12:36:58;2.38;;;2.25;;
9228;SDS011;4649;42.644;23.284;2023-08-01T12:39:26;1.80;;;1.70;;
9228;SDS011;4649;42.644;23.284;2023-08-01T12:41:53;5.90;;;1.80;;
9228;SDS011;4649;42.644;23.284;2023-08-01T12:44:20;3.22;;;2.30;;
9228;SDS011;4649;42.644;23.284;2023-08-01T12:46:47;2.20;;;2.10;;
9228;SDS011;4649;42.644;23.284;2023-08-01T12:49:14;1.77;;;1.60;;
9228;SDS011;4649;42.644;23.284;2023-08-01T12:51:41;2.65;;;1.40;;
9228;SDS011;4649;42.644;23.284;2023-08-01T12:54:07;1.70;;;1.60;;
9228;SDS011;4649;42.644;23.284;2023-08-01T12:56:36;2.03;;;1.73;;
9228;SDS011;4649;42.644;23.284;2023-08-01T12:59:03;1.75;;;1.45;;
9228;SDS011;4649;42.644;23.284;2023-08-01T13:01:30;2.00;;;1.45;;
9228;SDS011;4649;42.644;23.284;2023-08-01T13:03:57;1.42;;;1.42;;
9228;SDS011;4649;42.644;23.284;2023-08-01T13:06:24;1.50;;;1.38;;
9228;SDS011;4649;42.644;23.284;2023-08-01T13:08:51;1.45;;;1.45;;
9228;SDS011;4649;42.644;23.284;2023-08-01T13:11:18;1.67;;;1.58;;
9228;SDS011;4649;42.644;23.284;2023-08-01T13:13:46;1.88;;;1.77;;
9228;SDS011;4649;42.644;23.284;2023-08-01T13:16:13;1.73;;;1.60;;
9228;SDS011;4649;42.644;23.284;2023-08-01T13:18:40;2.40;;;1.83;;
9228;SDS011;4649;42.644;23.284;2023-08-01T13:21:09;1.63;;;1.48;;
9228;SDS011;4649;42.644;23.284;2023-08-01T13:23:37;2.20;;;1.80;;
9228;SDS011;4649;42.644;23.284;2023-08-01T13:26:04;3.40;;;1.42;;
9228;SDS011;4649;42.644;23.284;2023-08-01T13:28:31;1.98;;;1.70;;
9228;SDS011;4649;42.644;23.284;2023-08-01T13:30:59;1.30;;;1.30;;
9228;SDS011;4649;42.644;23.284;2023-08-01T13:33:26;2.33;;;1.58;;
9228;SDS011;4649;42.644;23.284;2023-08-01T13:35:53;7.85;;;1.67;;
9228;SDS011;4649;42.644;23.284;2023-08-01T13:38:19;1.50;;;1.40;;
9228;SDS011;4649;42.644;23.284;2023-08-01T13:40:46;3.92;;;1.92;;
9228;SDS011;4649;42.644;23.284;2023-08-01T13:43:13;4.10;;;1.67;;
9228;SDS011;4649;42.644;23.284;2023-08-01T13:45:40;1.20;;;1.20;;
9228;SDS011;4649;42.644;23.284;2023-08-01T13:48:09;1.20;;;1.20;;
9228;SDS011;4649;42.644;23.284;2023-08-01T13:50:36;1.52;;;1.52;;
9228;SDS011;4649;42.644;23.284;2023-08-01T13:53:03;2.35;;;1.88;;
9228;SDS011;4649;42.644;23.284;2023-08-01T13:55:32;2.90;;;1.70;;
9228;SDS011;4649;42.644;23.284;2023-08-01T13:57:59;16.40;;;1.65;;
9228;SDS011;4649;42.644;23.284;2023-08-01T14:00:26;1.60;;;1.50;;
9228;SDS011;4649;42.644;23.284;2023-08-01T14:02:53;1.45;;;1.40;;
9228;SDS011;4649;42.644;23.284;2023-08-01T14:05:23;1.90;;;1.52;;
9228;SDS011;4649;42.644;23.284;2023-08-01T14:07:51;1.45;;;1.42;;
9228;SDS011;4649;42.644;23.284;2023-08-01T14:10:17;1.70;;;1.60;;
9228;SDS011;4649;42.644;23.284;2023-08-01T14:12:45;1.60;;;1.50;;
9228;SDS011;4649;42.644;23.284;2023-08-01T14:15:11;1.45;;;1.20;;
9228;SDS011;4649;42.644;23.284;2023-08-01T14:17:38;1.10;;;1.10;;
9228;SDS011;4649;42.644;23.284;2023-08-01T14:20:06;1.30;;;1.30;;
9228;SDS011;4649;42.644;23.284;2023-08-01T14:22:35;1.38;;;1.38;;
9228;SDS011;4649;42.644;23.284;2023-08-01T14:25:03;1.40;;;1.40;;
9228;SDS011;4649;42.644;23.284;2023-08-01T14:27:30;1.27;;;1.27;;
9228;SDS011;4649;42.644;23.284;2023-08-01T14:29:57;1.70;;;1.60;;
9228;SDS011;4649;42.644;23.284;2023-08-01T14:32:25;2.05;;;1.85;;
9228;SDS011;4649;42.644;23.284;2023-08-01T14:34:52;2.60;;;1.50;;
9228;SDS011;4649;42.644;23.284;2023-08-01T14:37:18;1.42;;;1.42;;
9228;SDS011;4649;42.644;23.284;2023-08-01T14:39:52;2.45;;;1.70;;
9228;SDS011;4649;42.644;23.284;2023-08-01T14:42:39;1.58;;;1.58;;
9228;SDS011;4649;42.644;23.284;2023-08-01T14:45:06;1.98;;;1.88;;
9228;SDS011;4649;42.644;23.284;2023-08-01T14:47:33;2.22;;;2.00;;
9228;SDS011;4649;42.644;23.284;2023-08-01T14:50:03;2.00;;;1.90;;
9228;SDS011;4649;42.644;23.284;2023-08-01T14:52:30;1.70;;;1.70;;
9228;SDS011;4649;42.644;23.284;2023-08-01T14:54:59;1.67;;;1.63;;
9228;SDS011;4649;42.644;23.284;2023-08-01T14:57:26;1.70;;;1.60;;
9228;SDS011;4649;42.644;23.284;2023-08-01T14:59:53;1.75;;;1.75;;
9228;SDS011;4649;42.644;23.284;2023-08-01T15:02:20;2.08;;;1.98;;
9228;SDS011;4649;42.644;23.284;2023-08-01T15:04:50;1.50;;;1.50;;
9228;SDS011;4649;42.644;23.284;2023-08-01T15:07:19;1.88;;;1.77;;